Time;durP1;ratioP1;P1;durP2;ratioP2;P2;SDS_P1;SDS_P2;PMS_P1;PMS_P2;Temp;Humidity;BMP_temperature;BMP_pressure;BME280_temperature;BME280_humidity;BME280_pressure;Samples;Min_cycle;Max_cycle;Signal;HPM_P1;HPM_P2
2022/04/03 00:00:31;;;;;;;7.60;3.90;;;;;;;3.34;66.23;100308.53;4925744;29;20070;-88
2022/04/03 00:02:57;;;;;;;8.32;4.07;;;;;;;3.35;65.98;100305.78;4942146;28;20027;-89
2022/04/03 00:05:22;;;;;;;6.00;3.45;;;;;;;3.31;65.60;100306.91;4925613;28;20027;-88
2022/04/03 00:07:47;;;;;;;6.22;3.55;;;;;;;3.38;65.69;100310.91;4925051;29;20468;-89
2022/04/03 00:10:14;;;;;;;6.88;3.63;;;;;;;3.34;65.90;100306.72;4942319;28;20511;-88
2022/04/03 00:12:40;;;;;;;5.03;3.10;;;;;;;3.32;65.41;100308.59;4941019;28;20031;-88
2022/04/03 00:15:06;;;;;;;4.63;2.92;;;;;;;3.27;65.22;100315.03;4932182;29;20067;-88
2022/04/03 00:17:31;;;;;;;5.50;3.30;;;;;;;3.29;65.55;100313.16;4940874;28;20063;-89
2022/04/03 00:19:56;;;;;;;4.13;2.90;;;;;;;3.24;65.15;100316.06;4956665;28;20063;-88
2022/04/03 00:22:22;;;;;;;4.50;2.70;;;;;;;3.26;65.79;100321.25;4949010;28;20054;-88
2022/04/03 00:24:48;;;;;;;4.35;2.75;;;;;;;3.23;65.24;100316.16;4956521;28;20411;-88
2022/04/03 00:27:13;;;;;;;4.60;3.05;;;;;;;3.19;65.70;100315.47;4941065;29;20118;-88
2022/04/03 00:29:39;;;;;;;5.40;2.97;;;;;;;3.21;65.78;100316.22;4940796;28;20027;-89
2022/04/03 00:32:04;;;;;;;4.07;2.63;;;;;;;3.21;64.82;100316.22;4947838;28;20028;-89
2022/04/03 00:34:30;;;;;;;5.78;3.00;;;;;;;3.15;65.33;100317.41;4941733;28;20027;-88
2022/04/03 00:36:55;;;;;;;4.00;2.53;;;;;;;3.20;65.30;100319.81;4956655;28;20060;-88
2022/04/03 00:39:21;;;;;;;3.90;2.67;;;;;;;3.20;65.71;100316.31;4939185;28;20042;-89
2022/04/03 00:41:46;;;;;;;4.75;2.80;;;;;;;3.19;65.64;100320.75;4931390;29;20035;-89
2022/04/03 00:44:11;;;;;;;5.70;2.80;;;;;;;3.23;66.30;100327.56;4939681;28;20031;-88
2022/04/03 00:46:37;;;;;;;4.18;2.83;;;;;;;3.21;66.12;100321.50;4947722;28;20063;-89
2022/04/03 00:49:02;;;;;;;4.95;2.53;;;;;;;3.19;65.75;100325.19;4923963;29;20118;-89
2022/04/03 00:51:29;;;;;;;6.60;2.72;;;;;;;3.08;65.27;100323.13;4940555;28;20036;-89
2022/04/03 00:53:54;;;;;;;3.55;2.13;;;;;;;3.07;65.14;100322.25;4947597;28;20032;-89
2022/04/03 00:56:20;;;;;;;5.32;2.20;;;;;;;3.03;65.26;100319.88;4941886;28;20031;-89
2022/04/03 00:58:46;;;;;;;3.42;2.33;;;;;;;3.10;64.99;100315.97;4925528;29;20053;-89
2022/04/03 01:01:27;;;;;;;3.80;2.30;;;;;;;3.07;64.67;100330.19;4932005;29;20035;-89
2022/04/03 01:03:52;;;;;;;5.28;2.58;;;;;;;3.12;65.23;100325.50;4931773;29;20098;-89
2022/04/03 01:06:17;;;;;;;2.55;1.98;;;;;;;2.99;64.16;100327.09;4957981;28;20039;-89
2022/04/03 01:08:43;;;;;;;4.57;2.30;;;;;;;2.93;64.55;100331.84;4926756;28;20031;-89
2022/04/03 01:11:13;;;;;;;3.97;2.28;;;;;;;3.05;65.74;100325.91;4950558;28;20392;-89
2022/04/03 01:13:46;;;;;;;4.57;2.67;;;;;;;2.97;64.93;100326.31;4942320;28;20098;-89
2022/04/03 01:16:11;;;;;;;6.55;2.47;;;;;;;3.05;65.10;100324.13;4942816;29;20083;-88
2022/04/03 01:18:37;;;;;;;4.18;2.58;;;;;;;2.99;64.80;100316.53;4944770;29;20377;-89
2022/04/03 01:21:02;;;;;;;3.40;2.20;;;;;;;2.96;64.79;100324.63;4928662;29;20037;-88
2022/04/03 01:23:27;;;;;;;3.95;2.22;;;;;;;2.99;65.14;100323.59;4944022;28;20046;-89
2022/04/03 01:25:52;;;;;;;3.83;2.70;;;;;;;3.08;65.05;100325.75;4944467;28;20031;-88
2022/04/03 01:28:18;;;;;;;3.85;2.30;;;;;;;3.10;65.27;100324.75;4943937;28;20070;-89
2022/04/03 01:30:43;;;;;;;3.20;2.30;;;;;;;3.10;65.92;100318.59;4928217;29;20042;-89
2022/04/03 01:33:08;;;;;;;3.85;2.30;;;;;;;3.11;66.16;100321.16;4926796;29;20031;-89
2022/04/03 01:35:34;;;;;;;2.55;2.03;;;;;;;3.11;66.87;100318.53;4950522;28;20039;-89
2022/04/03 01:37:59;;;;;;;4.53;2.33;;;;;;;3.11;67.15;100326.44;4951158;29;20055;-89
2022/04/03 01:40:24;;;;;;;3.33;2.20;;;;;;;3.06;66.54;100311.78;4934176;29;20036;-89
2022/04/03 01:42:50;;;;;;;2.42;1.88;;;;;;;3.02;65.97;100319.00;4943470;28;20119;-89
2022/04/03 01:45:16;;;;;;;2.60;2.03;;;;;;;2.98;66.79;100313.97;4951240;28;20035;-88
2022/04/03 01:47:41;;;;;;;4.15;2.47;;;;;;;3.01;66.54;100317.31;4941965;28;20043;-88
2022/04/03 01:50:07;;;;;;;2.28;2.03;;;;;;;2.99;66.89;100315.69;4926208;29;20035;-89
2022/04/03 01:52:32;;;;;;;5.47;2.10;;;;;;;2.94;67.03;100312.44;4943529;28;20511;-89
2022/04/03 01:54:59;;;;;;;3.55;2.00;;;;;;;2.94;66.95;100315.94;4926949;29;20039;-89
2022/04/03 01:57:25;;;;;;;4.13;2.03;;;;;;;2.95;66.20;100316.78;4926871;29;20162;-88
2022/04/03 01:59:51;;;;;;;4.50;1.88;;;;;;;2.88;65.23;100312.75;4943255;28;20050;-89
2022/04/03 02:02:16;;;;;;;4.28;1.90;;;;;;;2.84;65.42;100306.78;4926676;29;20031;-89
2022/04/03 02:04:41;;;;;;;3.47;2.00;;;;;;;2.82;65.36;100312.13;4943483;28;20044;-89
2022/04/03 02:07:07;;;;;;;3.05;2.17;;;;;;;2.82;65.68;100316.53;4943560;28;20040;-89
2022/04/03 02:09:32;;;;;;;2.78;1.77;;;;;;;2.80;65.94;100315.78;4926826;29;20035;-88
2022/04/03 02:11:58;;;;;;;2.22;1.80;;;;;;;2.73;64.91;100315.25;4926589;29;20520;-88
2022/04/03 02:14:27;;;;;;;2.13;1.77;;;;;;;2.80;65.87;100313.13;4950348;28;20032;-89
2022/04/03 02:16:57;;;;;;;3.17;2.28;;;;;;;2.84;65.65;100312.91;4941613;28;20051;-88
2022/04/03 02:19:23;;;;;;;2.55;1.80;;;;;;;2.78;65.48;100310.56;4932198;29;20031;-88
2022/04/03 02:21:48;;;;;;;2.42;2.20;;;;;;;2.82;66.16;100309.47;4934196;29;20592;-88
2022/04/03 02:24:14;;;;;;;2.20;1.80;;;;;;;2.83;66.04;100305.91;4950350;28;20039;-88
2022/04/03 02:26:39;;;;;;;2.95;2.20;;;;;;;2.82;66.41;100311.25;4926730;29;20050;-89
2022/04/03 02:29:05;;;;;;;2.78;2.00;;;;;;;2.80;66.99;100321.06;4926903;29;20043;-89
2022/04/03 02:31:30;;;;;;;2.58;2.20;;;;;;;2.80;66.55;100318.41;4943040;28;20035;-88
2022/04/03 02:33:56;;;;;;;3.08;2.00;;;;;;;2.78;66.31;100317.63;4943193;28;20612;-89
2022/04/03 02:36:21;;;;;;;4.47;2.20;;;;;;;2.76;66.72;100320.34;4949993;28;20470;-88
2022/04/03 02:38:47;;;;;;;3.65;2.25;;;;;;;2.73;66.28;100317.88;4957978;28;20044;-89
2022/04/03 02:41:12;;;;;;;4.15;1.85;;;;;;;2.73;66.23;100309.97;4942988;28;20094;-89
2022/04/03 02:43:38;;;;;;;4.05;2.47;;;;;;;2.71;67.11;100309.19;4942053;28;20081;-88
2022/04/03 02:46:03;;;;;;;5.28;2.30;;;;;;;2.73;66.93;100314.38;4925260;29;20130;-89
2022/04/03 02:48:30;;;;;;;4.05;2.45;;;;;;;2.70;66.92;100310.13;4958185;28;20356;-88
2022/04/03 02:50:55;;;;;;;3.63;2.40;;;;;;;2.70;67.05;100319.81;4925621;28;20041;-88
2022/04/03 02:53:21;;;;;;;6.07;2.25;;;;;;;2.68;66.73;100327.81;4941671;28;20537;-88
2022/04/03 02:55:46;;;;;;;2.80;2.22;;;;;;;2.68;66.92;100322.53;4940803;28;20032;-88
2022/04/03 02:58:11;;;;;;;4.60;2.65;;;;;;;2.65;67.09;100322.69;4934274;29;20038;-88
2022/04/03 03:00:37;;;;;;;2.95;2.15;;;;;;;2.62;66.98;100322.00;4933097;29;20122;-89
2022/04/03 03:03:05;;;;;;;3.38;2.25;;;;;;;2.61;67.09;100330.84;4941650;28;20031;-88
2022/04/03 03:05:30;;;;;;;3.35;2.15;;;;;;;2.56;67.49;100325.81;4942247;28;20456;-89
2022/04/03 03:07:55;;;;;;;5.18;2.35;;;;;;;2.54;67.60;100325.03;4925812;29;20039;-89
2022/04/03 03:10:22;;;;;;;3.50;2.35;;;;;;;2.56;67.23;100328.47;4957447;28;20050;-88
2022/04/03 03:12:48;;;;;;;3.90;2.15;;;;;;;2.60;67.80;100324.72;4957120;28;20031;-89
2022/04/03 03:15:14;;;;;;;2.85;2.35;;;;;;;2.58;67.41;100315.19;4925090;28;20035;-89
2022/04/03 03:17:40;;;;;;;3.95;2.75;;;;;;;2.56;67.06;100317.91;4933222;28;20054;-89
2022/04/03 03:20:06;;;;;;;4.03;2.10;;;;;;;2.53;67.66;100320.69;4941030;28;20378;-88
2022/04/03 03:22:32;;;;;;;4.05;2.70;;;;;;;2.53;67.92;100326.81;4949332;28;20263;-89
2022/04/03 03:24:57;;;;;;;4.53;2.78;;;;;;;2.47;68.02;100327.16;4941236;28;20031;-89
2022/04/03 03:27:22;;;;;;;3.40;2.45;;;;;;;2.47;67.64;100318.38;4940815;28;20059;-89
2022/04/03 03:29:48;;;;;;;3.45;2.67;;;;;;;2.42;66.37;100323.03;4923729;29;20035;-89
2022/04/03 03:32:13;;;;;;;4.97;2.55;;;;;;;2.37;66.61;100320.63;4939999;28;20031;-89
2022/04/03 03:34:38;;;;;;;3.58;2.25;;;;;;;2.47;66.53;100321.00;4931803;29;21338;-88
2022/04/03 03:37:04;;;;;;;5.60;2.67;;;;;;;2.49;66.81;100324.44;4925717;29;20150;-89
2022/04/03 03:39:29;;;;;;;5.22;2.78;;;;;;;2.47;66.54;100321.00;4940136;28;20166;-88
2022/04/03 03:41:55;;;;;;;4.00;2.60;;;;;;;2.50;66.78;100326.97;4926138;29;20038;-89
2022/04/03 03:44:21;;;;;;;4.45;2.45;;;;;;;2.48;67.20;100328.84;4948345;28;20031;-89
2022/04/03 03:46:47;;;;;;;4.25;2.42;;;;;;;2.48;66.96;100335.91;4941134;28;20035;-89
2022/04/03 03:49:14;;;;;;;4.22;2.95;;;;;;;2.45;67.39;100326.38;4940785;28;20028;-89
2022/04/03 03:51:39;;;;;;;4.28;2.90;;;;;;;2.43;67.34;100332.66;4924819;29;20027;-89
2022/04/03 03:54:05;;;;;;;3.10;2.75;;;;;;;2.41;67.92;100329.25;4957583;28;20561;-88
2022/04/03 03:56:30;;;;;;;5.60;2.72;;;;;;;2.40;68.00;100331.03;4925079;29;20035;-89
2022/04/03 03:58:56;;;;;;;4.15;2.75;;;;;;;2.40;67.72;100340.72;4941088;28;20059;-89
2022/04/03 04:01:22;;;;;;;3.97;2.88;;;;;;;2.33;68.16;100336.66;4950430;28;20122;-88
2022/04/03 04:03:48;;;;;;;3.88;2.58;;;;;;;2.32;67.93;100337.59;4942919;28;20059;-89
2022/04/03 04:06:13;;;;;;;3.90;3.03;;;;;;;2.32;68.43;100337.59;4932602;29;20376;-89
2022/04/03 04:08:39;;;;;;;4.20;2.88;;;;;;;2.29;68.25;100338.59;4949154;28;20043;-88
2022/04/03 04:11:05;;;;;;;4.35;3.00;;;;;;;2.28;68.53;100344.81;4941977;29;20035;-88
2022/04/03 04:13:30;;;;;;;6.10;3.47;;;;;;;2.29;68.81;100354.44;4949805;28;20032;-89
2022/04/03 04:15:56;;;;;;;5.63;3.22;;;;;;;2.28;68.75;100349.22;4941404;28;20043;-89
2022/04/03 04:18:21;;;;;;;3.92;3.20;;;;;;;2.27;68.31;100358.94;4940580;29;20043;-88
2022/04/03 04:20:46;;;;;;;4.18;2.90;;;;;;;2.25;68.86;100358.16;4909229;29;20466;-89
2022/04/03 04:23:13;;;;;;;3.88;2.92;;;;;;;2.26;68.88;100354.59;4932859;28;20035;-89
2022/04/03 04:25:38;;;;;;;3.53;3.13;;;;;;;2.27;68.65;100358.94;4916168;29;20705;-89
2022/04/03 04:28:04;;;;;;;5.00;2.95;;;;;;;2.26;68.97;100359.00;4916511;29;20039;-89
2022/04/03 04:30:29;;;;;;;4.50;2.92;;;;;;;2.25;68.51;100358.16;4907465;29;20031;-89
2022/04/03 04:32:54;;;;;;;4.43;3.03;;;;;;;2.24;68.32;100363.50;4908806;29;20032;-89
2022/04/03 04:35:20;;;;;;;6.40;3.92;;;;;;;2.22;68.24;100361.78;4925920;29;20035;-88
2022/04/03 04:37:45;;;;;;;7.22;4.10;;;;;;;2.24;68.69;100368.78;4909983;28;20031;-89
2022/04/03 04:40:12;;;;;;;5.60;3.70;;;;;;;2.24;69.04;100361.72;4923130;29;20031;-89
2022/04/03 04:42:37;;;;;;;6.05;3.78;;;;;;;2.23;68.59;100362.66;4927364;29;20023;-88
2022/04/03 04:45:04;;;;;;;5.78;3.38;;;;;;;2.23;68.29;100370.56;4935764;29;20047;-89
2022/04/03 04:47:34;;;;;;;7.80;4.38;;;;;;;2.22;68.92;100372.34;4936083;28;20043;-89
2022/04/03 04:50:00;;;;;;;6.60;3.47;;;;;;;2.24;68.90;100374.91;4928227;29;20460;-89
2022/04/03 04:52:25;;;;;;;3.83;3.00;;;;;;;2.20;68.43;100382.13;4913512;29;20074;-89
2022/04/03 04:54:50;;;;;;;6.22;3.05;;;;;;;2.17;68.62;100377.00;4929033;29;20123;-89
2022/04/03 04:57:16;;;;;;;4.72;3.00;;;;;;;2.16;68.96;100387.63;4910753;29;20179;-89
2022/04/03 04:59:42;;;;;;;5.10;3.20;;;;;;;2.12;68.45;100386.91;4912174;29;20034;-88
2022/04/03 05:02:07;;;;;;;4.82;3.28;;;;;;;2.12;69.00;100388.69;4927666;29;20111;-88
2022/04/03 05:04:33;;;;;;;4.88;3.00;;;;;;;2.14;69.24;100389.47;4911777;29;20032;-89
2022/04/03 05:06:59;;;;;;;6.38;3.40;;;;;;;2.13;68.96;100393.03;4943995;29;20042;-88
2022/04/03 05:09:25;;;;;;;4.93;3.22;;;;;;;2.16;68.73;100398.16;4918563;29;20441;-88
2022/04/03 05:11:50;;;;;;;5.00;3.00;;;;;;;2.10;68.83;100394.03;4928189;29;20059;-89
2022/04/03 05:14:16;;;;;;;3.78;3.17;;;;;;;2.09;69.11;100402.03;4942847;29;20039;-89
2022/04/03 05:16:41;;;;;;;4.15;3.00;;;;;;;2.05;69.03;100397.84;4933461;29;20144;-89
2022/04/03 05:19:11;;;;;;;6.57;3.45;;;;;;;2.05;68.68;100403.09;4950601;29;20037;-88
2022/04/03 05:21:36;;;;;;;4.43;3.03;;;;;;;2.08;69.18;100406.47;4951384;28;20093;-89
2022/04/03 05:24:02;;;;;;;5.93;3.05;;;;;;;2.05;68.66;100403.97;4944053;28;20432;-89
2022/04/03 05:26:27;;;;;;;3.40;2.85;;;;;;;2.10;68.73;100406.38;4959395;28;20043;-89
2022/04/03 05:28:52;;;;;;;5.15;3.30;;;;;;;2.10;69.10;100409.88;4943809;29;20041;-89
2022/04/03 05:31:17;;;;;;;6.10;3.40;;;;;;;2.04;69.19;100407.53;4943257;28;20035;-89
2022/04/03 05:33:43;;;;;;;6.20;3.25;;;;;;;2.05;69.04;100414.50;4927160;29;20027;-89
2022/04/03 05:36:08;;;;;;;4.05;2.83;;;;;;;2.07;69.35;100423.22;4941960;28;20031;-88
2022/04/03 05:38:34;;;;;;;4.95;3.15;;;;;;;2.06;69.42;100420.66;4928149;29;20039;-88
2022/04/03 05:40:59;;;;;;;4.40;3.30;;;;;;;2.05;69.60;100421.56;4925599;29;20046;-88
2022/04/03 05:43:25;;;;;;;4.75;3.00;;;;;;;2.06;69.49;100418.00;4943109;28;20035;-88
2022/04/03 05:45:50;;;;;;;5.80;3.72;;;;;;;2.10;69.48;100430.13;4950570;28;20683;-88
2022/04/03 05:48:15;;;;;;;5.28;3.50;;;;;;;2.09;69.55;100428.41;4943443;28;20119;-88
2022/04/03 05:50:41;;;;;;;4.15;2.95;;;;;;;2.09;69.78;100428.41;4941831;28;20066;-89
2022/04/03 05:53:06;;;;;;;9.73;4.30;;;;;;;2.07;70.01;100438.19;4942783;28;20354;-89
2022/04/03 05:55:32;;;;;;;6.70;3.83;;;;;;;2.04;69.49;100440.97;4943591;28;20346;-88
2022/04/03 05:57:58;;;;;;;5.57;3.17;;;;;;;2.02;69.54;100445.44;4950574;28;20035;-89
2022/04/03 06:00:24;;;;;;;5.30;2.92;;;;;;;2.04;69.54;100440.97;4957412;28;20031;-89
2022/04/03 06:02:58;;;;;;;5.85;3.10;;;;;;;2.01;70.17;100439.31;4943331;28;20475;-89
2022/04/03 06:05:25;;;;;;;5.93;3.30;;;;;;;2.00;69.69;100440.25;4950071;28;20089;-88
2022/04/03 06:07:51;;;;;;;5.78;3.40;;;;;;;1.99;70.50;100442.97;4943738;28;20227;-89
2022/04/03 06:10:19;;;;;;;4.18;3.30;;;;;;;2.03;70.77;100444.53;4933853;29;20529;-89
2022/04/03 06:12:54;;;;;;;6.20;2.92;;;;;;;2.04;70.03;100449.72;4942821;29;20035;-89
2022/04/03 06:15:19;;;;;;;5.93;3.38;;;;;;;2.02;70.21;100448.09;4942020;28;20035;-88
2022/04/03 06:17:47;;;;;;;4.05;3.08;;;;;;;2.03;70.29;100455.94;4949990;28;20506;-89
2022/04/03 06:20:12;;;;;;;6.85;3.50;;;;;;;2.03;69.90;100461.19;4949301;28;20031;-89
2022/04/03 06:22:38;;;;;;;5.20;3.20;;;;;;;2.06;70.36;100465.47;4942397;28;20475;-89
2022/04/03 06:25:07;;;;;;;5.80;3.10;;;;;;;2.04;70.46;100455.00;4942923;28;20031;-89
2022/04/03 06:27:32;;;;;;;4.47;3.45;;;;;;;2.05;70.11;100459.34;4942887;28;20066;-88
2022/04/03 06:29:58;;;;;;;5.25;3.28;;;;;;;2.11;71.05;100461.69;4941690;29;20039;-89
2022/04/03 06:32:23;;;;;;;5.43;3.08;;;;;;;2.15;70.75;100467.69;4943503;28;20036;-88
2022/04/03 06:34:48;;;;;;;3.90;2.88;;;;;;;2.20;71.31;100468.31;4926727;29;20074;-89
2022/04/03 06:37:14;;;;;;;4.68;2.95;;;;;;;2.13;70.71;100465.13;4944051;28;20152;-88
2022/04/03 06:39:39;;;;;;;5.35;3.28;;;;;;;2.10;70.34;100469.69;4948899;28;20038;-89
2022/04/03 06:42:04;;;;;;;4.88;3.60;;;;;;;2.14;71.13;100473.88;4926344;29;20088;-89
2022/04/03 06:44:30;;;;;;;4.20;3.10;;;;;;;2.14;71.00;100464.19;4933468;29;20038;-88
2022/04/03 06:46:56;;;;;;;4.70;3.40;;;;;;;2.12;70.83;100467.81;4926668;29;20069;-86
2022/04/03 06:49:21;;;;;;;4.90;3.45;;;;;;;2.17;70.85;100465.81;4926127;28;20593;-90
2022/04/03 06:51:46;;;;;;;4.35;3.45;;;;;;;2.18;71.00;100464.91;4926831;29;21035;-90
2022/04/03 06:54:12;;;;;;;4.05;3.38;;;;;;;2.16;71.13;100469.38;4948504;28;20031;-90
2022/04/03 06:56:37;;;;;;;4.28;3.38;;;;;;;2.14;71.24;100471.25;4933739;29;20031;-90
2022/04/03 06:59:04;;;;;;;5.30;3.50;;;;;;;2.12;71.05;100466.03;4925893;29;20039;-90
2022/04/03 07:01:29;;;;;;;5.03;3.40;;;;;;;2.18;71.48;100468.38;4950157;28;20456;-90
2022/04/03 07:03:54;;;;;;;5.05;3.15;;;;;;;2.21;71.51;100472.66;4949242;28;20051;-90
2022/04/03 07:06:20;;;;;;;6.45;3.60;;;;;;;2.25;72.00;100471.59;4942235;28;20070;-90
2022/04/03 07:08:48;;;;;;;5.70;4.28;;;;;;;2.28;71.32;100465.31;4926016;29;20039;-90
2022/04/03 07:11:14;;;;;;;8.70;4.38;;;;;;;2.24;70.51;100471.66;4925487;28;20051;-90
2022/04/03 07:13:39;;;;;;;6.82;5.32;;;;;;;2.36;70.65;100469.28;4959157;28;20039;-90
2022/04/03 07:16:05;;;;;;;8.85;6.03;;;;;;;2.29;70.22;100472.31;4942020;28;20055;-90
2022/04/03 07:18:31;;;;;;;8.68;5.80;;;;;;;2.34;70.33;100475.56;4933450;29;20031;-90
2022/04/03 07:20:56;;;;;;;8.50;4.85;;;;;;;2.35;70.53;100478.13;4941188;28;20059;-90
2022/04/03 07:23:24;;;;;;;8.90;6.13;;;;;;;2.37;70.75;100478.09;4958908;28;20462;-88
2022/04/03 07:25:49;;;;;;;8.15;5.55;;;;;;;2.39;70.59;100474.47;4941926;28;20416;-90
2022/04/03 07:28:15;;;;;;;6.80;5.47;;;;;;;2.48;70.71;100478.44;4940927;28;20043;-90
2022/04/03 07:30:40;;;;;;;5.50;3.50;;;;;;;2.44;70.33;100483.00;4948180;28;20036;-90
2022/04/03 07:33:05;;;;;;;4.65;3.70;;;;;;;2.35;69.53;100479.91;4931825;29;20035;-90
2022/04/03 07:35:31;;;;;;;5.82;4.85;;;;;;;2.36;69.55;100484.28;4933045;28;20373;-90
2022/04/03 07:37:56;;;;;;;5.30;4.05;;;;;;;2.36;69.60;100490.41;4943477;28;20027;-90
2022/04/03 07:40:22;;;;;;;4.15;3.40;;;;;;;2.44;69.82;100492.72;4933468;28;20031;-90
2022/04/03 07:42:49;;;;;;;3.47;2.97;;;;;;;2.42;69.53;100489.28;4931695;29;20027;-90
2022/04/03 07:45:15;;;;;;;5.13;3.42;;;;;;;2.52;69.49;100493.19;4932605;28;20038;-90
2022/04/03 07:47:48;;;;;;;3.72;3.30;;;;;;;2.58;69.25;100498.16;4932204;29;20039;-90
2022/04/03 07:50:14;;;;;;;4.15;3.20;;;;;;;2.60;69.48;100492.81;4925369;29;20461;-90
2022/04/03 07:52:41;;;;;;;3.92;3.03;;;;;;;2.56;69.71;100493.91;4951945;28;20040;-90
2022/04/03 07:55:10;;;;;;;5.07;3.00;;;;;;;2.46;69.20;100496.97;4948196;28;20031;-90
2022/04/03 07:57:39;;;;;;;3.63;3.10;;;;;;;2.48;69.10;100500.41;4942932;28;20027;-89
2022/04/03 08:00:12;;;;;;;3.72;2.83;;;;;;;2.52;69.26;100499.31;4941172;28;20027;-90
2022/04/03 08:02:38;;;;;;;4.22;3.20;;;;;;;2.59;69.56;100502.53;4932871;28;20047;-90
2022/04/03 08:05:05;;;;;;;3.00;2.70;;;;;;;2.57;68.70;100501.75;4925397;29;20035;-90
2022/04/03 08:07:45;;;;;;;2.67;2.38;;;;;;;2.55;68.83;100500.09;4926402;28;20027;-90
2022/04/03 08:10:16;;;;;;;6.38;2.88;;;;;;;2.59;68.13;100494.59;4942337;28;20023;-89
2022/04/03 08:12:43;;;;;;;3.47;2.80;;;;;;;2.64;67.72;100499.66;4922621;29;20492;-89
2022/04/03 08:15:13;;;;;;;4.40;2.70;;;;;;;2.69;68.69;100502.94;4941634;28;20039;-89
2022/04/03 08:17:39;;;;;;;3.92;2.90;;;;;;;2.62;67.32;100505.00;4946521;28;20047;-89
2022/04/03 08:20:09;;;;;;;3.50;2.70;;;;;;;2.63;67.30;100501.44;4953669;28;20476;-89
2022/04/03 08:22:36;;;;;;;3.33;2.60;;;;;;;2.64;67.27;100507.56;4947720;28;20090;-89
2022/04/03 08:25:02;;;;;;;4.03;3.30;;;;;;;2.69;67.04;100503.78;4936828;29;20545;-89
2022/04/03 08:27:40;;;;;;;5.05;2.97;;;;;;;2.68;66.63;100499.44;4938393;29;20036;-89
2022/04/03 08:30:10;;;;;;;6.32;3.15;;;;;;;2.63;67.02;100512.00;4946020;28;20032;-90
2022/04/03 08:32:35;;;;;;;3.85;2.88;;;;;;;2.65;67.65;100515.41;4937658;29;20039;-90
2022/04/03 08:35:12;;;;;;;3.92;2.90;;;;;;;2.72;66.86;100514.19;4952981;28;20453;-94
2022/04/03 08:37:38;;;;;;;3.28;2.47;;;;;;;2.75;66.41;100507.91;4949613;28;20036;-94
2022/04/03 08:40:05;;;;;;;2.92;2.63;;;;;;;2.78;66.28;100507.75;4953903;28;20049;-93
2022/04/03 08:42:31;;;;;;;4.13;3.00;;;;;;;2.87;66.19;100511.75;4947329;28;20118;-91
2022/04/03 08:45:00;;;;;;;4.18;2.53;;;;;;;2.86;66.09;100504.75;4953953;28;20024;-91
2022/04/03 08:47:52;;;;;;;3.95;2.78;;;;;;;2.87;66.52;100501.19;4939600;28;20084;-91
2022/04/03 08:50:19;;;;;;;3.53;2.58;;;;;;;2.96;67.06;100511.28;4944393;28;20035;-91
2022/04/03 08:52:48;;;;;;;3.85;2.45;;;;;;;2.98;66.42;100512.06;4948547;28;20083;-91
2022/04/03 08:55:14;;;;;;;3.78;2.45;;;;;;;2.97;64.66;100513.88;4938037;29;20046;-91
2022/04/03 08:57:42;;;;;;;3.72;2.65;;;;;;;2.95;64.78;100517.50;4938748;28;20042;-91
2022/04/03 09:00:09;;;;;;;4.68;2.65;;;;;;;2.93;65.21;100512.31;4938056;29;20055;-90
2022/04/03 09:02:35;;;;;;;4.80;2.50;;;;;;;2.98;65.25;100520.00;4952977;28;20122;-91
2022/04/03 09:05:03;;;;;;;3.92;2.75;;;;;;;3.01;64.77;100517.22;4930672;29;20138;-91
2022/04/03 09:07:28;;;;;;;5.37;3.10;;;;;;;3.04;64.75;100514.41;4938771;28;20428;-91
2022/04/03 09:09:58;;;;;;;3.97;2.58;;;;;;;3.05;64.30;100518.75;4950937;28;20034;-91
2022/04/03 09:12:45;;;;;;;;;;;;;;;;;;;;;
2022/04/03 09:15:18;;;;;;;4.18;2.95;;;;;;;3.12;64.37;100512.22;4952649;29;20037;-91
2022/04/03 09:17:49;;;;;;;3.28;2.65;;;;;;;3.14;64.51;100513.00;4935181;28;20066;-91
2022/04/03 09:20:17;;;;;;;4.57;2.42;;;;;;;3.12;64.79;100509.59;4945656;29;20032;-91
2022/04/03 09:22:44;;;;;;;3.67;2.70;;;;;;;3.16;64.04;100519.94;4934959;29;20023;-91
2022/04/03 09:25:12;;;;;;;3.55;2.97;;;;;;;3.26;63.73;100514.19;4953093;28;20492;-90
2022/04/03 09:27:51;;;;;;;3.33;2.80;;;;;;;3.30;63.26;100519.22;4952004;28;20042;-90
2022/04/03 09:30:22;;;;;;;3.00;2.38;;;;;;;3.31;62.57;100520.06;4944111;28;20027;-90
2022/04/03 09:32:56;;;;;;;4.70;3.47;;;;;;;3.30;62.51;100523.66;4956657;28;20027;-90
2022/04/03 09:35:27;;;;;;;4.05;2.80;;;;;;;3.32;61.71;100524.47;4934030;29;20082;-90
2022/04/03 09:38:14;;;;;;;2.90;2.28;;;;;;;3.36;60.98;100518.09;4934531;29;20523;-90
2022/04/03 09:40:42;;;;;;;3.53;2.50;;;;;;;3.44;61.30;100519.41;4927983;28;20119;-90
2022/04/03 09:43:28;;;;;;;6.82;2.65;;;;;;;3.43;61.89;100514.19;4945381;28;20035;-90
2022/04/03 09:45:56;;;;;;;4.32;2.40;;;;;;;3.41;62.03;100524.00;4944064;28;20035;-90
2022/04/03 09:48:29;;;;;;;4.97;2.47;;;;;;;3.37;61.72;100517.16;4934881;29;20039;-90
2022/04/03 09:50:54;;;;;;;4.63;2.40;;;;;;;3.33;60.42;100516.47;4943383;28;20291;-90
2022/04/03 09:53:20;;;;;;;3.60;2.45;;;;;;;3.45;60.72;100518.47;4945376;28;20095;-90
2022/04/03 09:55:46;;;;;;;3.10;2.03;;;;;;;3.48;60.02;100523.59;4944848;28;20039;-90
2022/04/03 09:58:12;;;;;;;3.38;2.25;;;;;;;3.48;59.87;100515.66;4954465;28;20027;-90
2022/04/03 10:00:41;;;;;;;3.63;2.00;;;;;;;3.63;61.16;100516.66;4964503;28;20039;-90
2022/04/03 10:03:06;;;;;;;3.20;2.35;;;;;;;3.71;60.84;100517.09;4967587;28;20038;-89
2022/04/03 10:05:56;;;;;;;3.45;2.00;;;;;;;3.70;59.04;100518.03;4958728;28;20031;-89
2022/04/03 10:08:21;;;;;;;2.30;2.05;;;;;;;3.68;58.34;100511.13;4958123;28;20363;-89
2022/04/03 10:10:47;;;;;;;2.58;1.90;;;;;;;3.71;57.15;100509.16;4960446;28;20013;-89
2022/04/03 10:13:13;;;;;;;2.63;1.65;;;;;;;3.73;57.45;100503.78;4966616;28;20054;-90
2022/04/03 10:15:38;;;;;;;2.30;1.88;;;;;;;3.75;57.24;100493.97;4985413;28;20023;-89
2022/04/03 10:18:05;;;;;;;2.70;1.92;;;;;;;3.79;57.81;100491.13;4949998;29;20039;-90
2022/04/03 10:20:30;;;;;;;2.08;1.80;;;;;;;3.83;58.36;100498.91;4925682;29;20046;-90
2022/04/03 10:22:58;;;;;;;2.90;1.90;;;;;;;3.82;56.97;100495.41;4925504;28;20103;-90
2022/04/03 10:25:27;;;;;;;3.88;2.10;;;;;;;3.93;58.11;100500.97;4926111;28;20042;-90
2022/04/03 10:27:55;;;;;;;3.83;1.90;;;;;;;3.95;56.73;100496.44;4917463;28;20379;-90
2022/04/03 10:30:36;;;;;;;3.20;1.97;;;;;;;3.93;56.02;100494.81;4919362;29;20864;-90
2022/04/03 10:33:02;;;;;;;3.50;1.80;;;;;;;3.98;55.94;100492.78;4913506;28;20290;-90
2022/04/03 10:35:28;;;;;;;3.85;2.20;;;;;;;3.98;55.54;100488.34;4912763;29;20035;-90
2022/04/03 10:38:02;;;;;;;2.60;1.85;;;;;;;3.94;56.36;100484.16;4920105;28;20039;-90
2022/04/03 10:40:30;;;;;;;2.78;1.90;;;;;;;3.95;55.88;100487.66;4928918;29;20035;-90
2022/04/03 10:43:02;;;;;;;3.80;1.90;;;;;;;3.94;55.41;100483.28;4920444;28;20103;-90
2022/04/03 10:45:43;;;;;;;3.05;1.75;;;;;;;3.94;55.87;100484.16;4927728;29;20047;-90
2022/04/03 10:48:21;;;;;;;3.05;1.50;;;;;;;3.96;56.08;100481.41;4913599;29;20031;-90
2022/04/03 10:51:08;;;;;;;1.83;1.60;;;;;;;3.98;56.23;100477.75;4928560;28;20121;-90
2022/04/03 10:53:36;;;;;;;1.75;1.40;;;;;;;4.05;56.99;100476.47;4920323;28;20027;-86
2022/04/03 10:56:08;;;;;;;2.25;1.88;;;;;;;4.07;56.55;100474.59;4911551;29;20039;-90
2022/04/03 10:58:54;;;;;;;1.60;1.50;;;;;;;4.07;56.50;100469.31;4911588;28;20063;-90
2022/04/03 11:01:23;;;;;;;2.58;1.60;;;;;;;4.13;56.10;100461.97;4929260;29;20027;-90
2022/04/03 11:04:11;;;;;;;2.25;1.45;;;;;;;4.16;57.48;100464.44;4934908;29;20027;-90
2022/04/03 11:06:38;;;;;;;3.25;1.60;;;;;;;4.10;56.37;100463.84;4928885;28;20038;-90
2022/04/03 11:09:09;;;;;;;3.65;1.80;;;;;;;4.02;55.33;100457.28;4915080;28;20043;-90
2022/04/03 11:11:36;;;;;;;2.40;1.75;;;;;;;4.01;56.63;100455.56;4925754;29;20043;-90
2022/04/03 11:14:01;;;;;;;2.38;1.38;;;;;;;4.04;56.65;100448.31;4913756;29;20038;-90
2022/04/03 11:16:28;;;;;;;2.50;1.52;;;;;;;4.10;56.23;100455.91;4932212;29;20408;-90
2022/04/03 11:18:53;;;;;;;2.28;1.60;;;;;;;4.25;55.73;100458.63;4944436;28;20038;-90
2022/04/03 11:21:32;;;;;;;2.10;1.80;;;;;;;4.34;56.40;100444.91;4940107;29;20094;-90
2022/04/03 11:24:10;;;;;;;2.15;1.60;;;;;;;4.31;55.55;100447.75;4945917;29;20051;-90
2022/04/03 11:26:36;;;;;;;3.40;1.42;;;;;;;4.32;55.64;100445.00;4952505;29;20107;-90
2022/04/03 11:29:06;;;;;;;2.17;1.40;;;;;;;4.34;55.27;100445.78;4951687;28;20491;-90
2022/04/03 11:31:32;;;;;;;1.45;1.30;;;;;;;4.43;55.85;100439.94;4961511;28;20661;-89
2022/04/03 11:33:59;;;;;;;1.95;1.27;;;;;;;4.49;55.42;100438.75;4953528;28;20802;-90